createdAt,value
2019-04-01T00:00:01.144Z,2.17
2019-04-01T00:05:05.313Z,1.57
2019-04-01T00:10:08.793Z,1.97
2019-04-01T00:15:11.786Z,2.00
2019-04-01T00:20:15.371Z,1.63
2019-04-01T00:25:18.307Z,1.70
2019-04-01T00:30:21.520Z,1.73
2019-04-01T00:35:24.724Z,2.13
2019-04-01T00:40:27.929Z,1.50
2019-04-01T00:45:31.865Z,2.10
2019-04-01T00:50:35.100Z,1.97
2019-04-01T00:55:38.407Z,1.97
2019-04-01T01:00:41.292Z,2.63
2019-04-01T01:05:44.491Z,3.00
2019-04-01T01:10:47.704Z,1.63
2019-04-01T01:15:51.208Z,1.63
2019-04-01T01:20:54.745Z,1.90
2019-04-01T01:25:57.594Z,2.13
2019-04-01T01:31:00.704Z,1.50
2019-04-01T01:36:03.864Z,1.90
2019-04-01T01:41:06.764Z,2.03
2019-04-01T01:46:09.975Z,1.90
2019-04-01T01:51:12.829Z,2.23
2019-04-01T01:56:16.300Z,1.90
2019-04-01T02:01:19.343Z,2.47
2019-04-01T02:06:22.863Z,1.87
2019-04-01T02:11:26.004Z,1.90
2019-04-01T02:16:29.228Z,1.93
2019-04-01T02:21:32.449Z,2.10
2019-04-01T02:26:37.576Z,1.90
2019-04-01T02:31:40.802Z,1.90
2019-04-01T02:36:44.020Z,2.13
2019-04-01T02:41:47.514Z,2.10
2019-04-01T02:46:50.442Z,2.50
2019-04-01T02:51:52.940Z,2.00
2019-04-01T02:56:56.442Z,1.40
2019-04-01T03:01:59.313Z,2.30
2019-04-01T03:07:02.495Z,3.03
2019-04-01T03:12:05.976Z,1.57
2019-04-01T03:17:09.198Z,2.30
2019-04-01T03:22:12.709Z,2.63
2019-04-01T03:27:17.457Z,3.17
2019-04-01T03:32:20.773Z,2.13
2019-04-01T03:37:23.575Z,2.37
2019-04-01T03:42:25.924Z,1.67
2019-04-01T03:47:29.146Z,2.03
2019-04-01T03:52:32.139Z,1.73
2019-04-01T03:57:35.392Z,2.47
2019-04-01T04:02:38.666Z,2.83
2019-04-01T04:07:41.508Z,2.50
2019-04-01T04:12:44.653Z,3.30
2019-04-01T04:17:48.077Z,2.97
2019-04-01T04:22:50.728Z,2.80
2019-04-01T04:27:53.208Z,2.40
2019-04-01T04:32:56.070Z,2.27
2019-04-01T04:37:59.014Z,2.50
2019-04-01T04:43:02.127Z,2.87
2019-04-01T04:48:05.072Z,2.80
2019-04-01T04:53:08.210Z,2.37
2019-04-01T04:58:11.145Z,2.43
2019-04-01T05:03:14.322Z,2.93
2019-04-01T05:08:17.248Z,3.37
2019-04-01T05:13:20.790Z,3.43
2019-04-01T05:18:24.418Z,4.13
2019-04-01T05:23:28.605Z,3.70
2019-04-01T05:28:33.950Z,3.50
2019-04-01T05:33:54.565Z,2.90
2019-04-01T05:38:45.941Z,4.27
2019-04-01T05:43:49.437Z,5.33
2019-04-01T05:48:52.834Z,4.40
2019-04-01T05:53:56.425Z,4.30
2019-04-01T05:58:59.654Z,4.53
2019-04-01T06:04:02.149Z,4.80
2019-04-01T06:09:07.531Z,3.13
2019-04-01T06:14:10.753Z,3.50
2019-04-01T06:19:13.613Z,3.50
2019-04-01T06:24:16.117Z,3.07
2019-04-01T06:29:19.246Z,2.80
2019-04-01T06:34:23.902Z,3.20
2019-04-01T06:39:27.112Z,2.40
2019-04-01T06:44:30.067Z,2.60
2019-04-01T06:49:33.325Z,2.07
2019-04-01T06:54:36.879Z,3.00
2019-04-01T06:59:40.060Z,2.80
2019-04-01T07:04:43.260Z,3.03
2019-04-01T07:09:46.147Z,2.63
2019-04-01T07:14:49.180Z,2.10
2019-04-01T07:19:52.379Z,2.10
2019-04-01T07:24:55.285Z,2.27
2019-04-01T07:29:58.741Z,1.80
2019-04-01T07:35:02.343Z,1.50
2019-04-01T07:40:06.041Z,2.00
2019-04-01T07:45:09.773Z,1.87
2019-04-01T07:50:13.640Z,2.10
2019-04-01T07:55:16.796Z,2.00
2019-04-01T08:00:20.518Z,2.00
2019-04-01T08:05:26.075Z,1.70
2019-04-01T08:10:31.450Z,1.40
2019-04-01T08:15:34.848Z,1.60
2019-04-01T08:20:39.703Z,2.03
2019-04-01T08:25:43.151Z,1.47
2019-04-01T08:30:46.627Z,2.10
2019-04-01T08:35:52.240Z,1.87
2019-04-01T08:40:55.616Z,1.50
2019-04-01T08:45:59.359Z,2.27
2019-04-01T08:51:04.598Z,1.73
2019-04-01T08:56:07.910Z,1.67
2019-04-01T09:01:11.618Z,1.50
2019-04-01T09:06:15.069Z,1.33
2019-04-01T09:11:19.141Z,2.10
2019-04-01T09:16:22.863Z,1.60
2019-04-01T09:21:25.772Z,1.47
2019-04-01T09:26:28.602Z,1.60
2019-04-01T09:31:31.565Z,1.33
2019-04-01T09:36:34.822Z,1.73
2019-04-01T09:41:38.368Z,1.53
2019-04-01T09:46:41.608Z,1.50
2019-04-01T09:51:48.815Z,1.90
2019-04-01T09:56:49.249Z,2.03
2019-04-01T10:01:52.597Z,1.20
2019-04-01T10:06:55.946Z,1.83
2019-04-01T10:11:58.834Z,1.83
2019-04-01T10:17:02.082Z,2.10
2019-04-01T10:22:06.254Z,1.43
2019-04-01T10:27:09.589Z,1.80
2019-04-01T10:32:13.087Z,1.80
2019-04-01T10:37:16.831Z,1.60
2019-04-01T10:42:20.307Z,1.77
2019-04-01T10:47:23.551Z,3.93
2019-04-01T10:52:26.960Z,1.60
2019-04-01T10:57:30.405Z,2.00
2019-04-01T11:02:33.368Z,1.73
2019-04-01T11:07:36.728Z,2.27
2019-04-01T11:12:39.620Z,1.77
2019-04-01T11:17:43.904Z,2.23
2019-04-01T11:22:49.860Z,1.93
2019-04-01T11:27:53.287Z,1.67
2019-04-01T11:32:56.427Z,1.37
2019-04-01T11:37:59.733Z,2.07
2019-04-01T11:43:04.956Z,1.83
2019-04-01T11:48:07.090Z,2.00
2019-04-01T11:53:09.961Z,1.70
2019-04-01T11:58:13.687Z,1.33
2019-04-01T12:03:16.928Z,2.10
2019-04-01T12:08:20.307Z,1.40
2019-04-01T12:13:23.752Z,1.37
2019-04-01T12:18:26.924Z,1.90
2019-04-01T12:23:30.706Z,1.87
2019-04-01T12:28:36.413Z,2.30
2019-04-01T12:33:38.740Z,1.77
2019-04-01T12:38:41.751Z,2.57
2019-04-01T12:43:45.288Z,1.97
2019-04-01T12:48:48.683Z,2.00
2019-04-01T12:53:51.696Z,1.83
2019-04-01T12:58:54.690Z,1.67
2019-04-01T13:03:58.589Z,2.40
2019-04-01T13:09:01.419Z,1.83
2019-04-01T13:14:05.340Z,1.67
2019-04-01T13:19:08.555Z,2.23
2019-04-01T13:24:11.970Z,2.57
2019-04-01T13:29:15.261Z,2.50
2019-04-01T13:34:20.242Z,2.20
2019-04-01T13:39:23.361Z,1.87
2019-04-01T13:44:36.619Z,1.80
2019-04-01T13:49:32.295Z,1.50
2019-04-01T13:54:35.209Z,1.97
2019-04-01T13:59:49.111Z,1.70
2019-04-01T14:04:43.493Z,1.80
2019-04-01T14:09:46.903Z,1.60
2019-04-01T14:14:49.814Z,2.37
2019-04-01T14:19:53.005Z,2.00
2019-04-01T14:24:56.338Z,2.17
2019-04-01T14:29:59.247Z,1.87
2019-04-01T14:35:02.608Z,2.60
2019-04-01T14:40:07.741Z,1.23
2019-04-01T14:45:11.588Z,2.00
2019-04-01T14:50:14.862Z,2.50
2019-04-01T14:55:17.329Z,1.77
2019-04-01T15:00:20.086Z,1.50
2019-04-01T15:05:23.659Z,1.90
2019-04-01T15:10:27.319Z,2.10
2019-04-01T15:15:30.060Z,2.00
2019-04-01T15:20:33.381Z,1.63
2019-04-01T15:25:38.227Z,2.13
2019-04-01T15:30:41.266Z,1.97
2019-04-01T15:35:44.469Z,2.00
2019-04-01T15:40:47.849Z,2.00
2019-04-01T15:45:51.256Z,2.00
2019-04-01T15:50:54.683Z,1.80
2019-04-01T15:55:57.899Z,1.90
2019-04-01T16:01:01.269Z,2.20
2019-04-01T16:06:07.606Z,2.03
2019-04-01T16:11:10.369Z,2.20
2019-04-01T16:16:14.669Z,1.80
2019-04-01T16:21:17.892Z,1.60
2019-04-01T16:26:21.291Z,1.93
2019-04-01T16:31:26.636Z,2.00
2019-04-01T16:36:29.923Z,1.53
2019-04-01T16:41:33.538Z,2.10
2019-04-01T16:46:36.721Z,1.47
2019-04-01T16:51:41.364Z,2.60
2019-04-01T16:56:45.131Z,2.60
2019-04-01T17:01:48.617Z,2.20
2019-04-01T17:06:51.810Z,3.10
2019-04-01T17:11:55.290Z,2.77
2019-04-01T17:16:58.991Z,2.20
2019-04-01T17:22:03.075Z,3.30
2019-04-01T17:27:13.139Z,3.07
2019-04-01T17:32:16.220Z,2.40
2019-04-01T17:37:19.774Z,2.37
2019-04-01T17:42:23.954Z,2.33
2019-04-01T17:47:28.099Z,2.67
2019-04-01T17:52:31.305Z,2.20
2019-04-01T17:57:35.539Z,2.47
2019-04-01T18:02:38.766Z,2.27
2019-04-01T18:07:44.234Z,2.20
2019-04-01T18:12:49.473Z,2.67
2019-04-01T18:17:53.957Z,1.50
2019-04-01T18:22:58.290Z,2.40
2019-04-01T18:28:02.965Z,2.40
2019-04-01T18:33:06.994Z,1.80
2019-04-01T18:38:10.516Z,1.80
2019-04-01T18:43:13.979Z,1.77
2019-04-01T18:48:19.288Z,1.80
2019-04-01T18:53:28.522Z,2.40
2019-04-01T18:58:32.604Z,2.10
2019-04-01T19:03:35.323Z,2.00
2019-04-01T19:08:41.373Z,1.43
2019-04-01T19:13:44.962Z,2.17
2019-04-01T19:18:47.791Z,1.83
2019-04-01T19:24:01.058Z,1.93
2019-04-01T19:29:09.967Z,2.70
2019-04-01T19:34:13.694Z,1.90
2019-04-01T19:39:16.980Z,2.10
2019-04-01T19:44:20.349Z,2.40
2019-04-01T19:49:23.581Z,2.27
2019-04-01T19:54:34.002Z,2.03
2019-04-01T19:59:37.787Z,2.17
2019-04-01T20:04:41.441Z,1.93
2019-04-01T20:09:46.293Z,2.90
2019-04-01T20:14:50.827Z,3.03
2019-04-01T20:19:54.207Z,3.17
2019-04-01T20:24:57.782Z,2.90
2019-04-01T20:30:01.399Z,2.67
2019-04-01T20:35:05.789Z,2.47
2019-04-01T20:40:09.566Z,2.93
2019-04-01T20:45:13.609Z,2.47
2019-04-01T20:50:17.234Z,2.20
2019-04-01T20:55:19.810Z,2.37
2019-04-01T21:00:22.798Z,2.80
2019-04-01T21:05:26.860Z,2.47
2019-04-01T21:10:29.611Z,2.67
2019-04-01T21:15:32.481Z,2.67
2019-04-01T21:20:35.456Z,2.70
2019-04-01T21:25:38.608Z,2.83
2019-04-01T21:30:42.136Z,3.27
2019-04-01T21:35:45.372Z,3.43
2019-04-01T21:40:48.250Z,3.30
2019-04-01T21:45:51.827Z,3.03
2019-04-01T21:50:54.815Z,3.97
2019-04-01T21:55:58.095Z,2.50
2019-04-01T22:01:01.784Z,3.17
2019-04-01T22:06:05.114Z,3.43
2019-04-01T22:11:08.744Z,2.90
2019-04-01T22:16:11.903Z,3.37
2019-04-01T22:21:15.155Z,3.57
2019-04-01T22:26:18.717Z,2.30
2019-04-01T22:31:21.935Z,2.63
2019-04-01T22:36:31.061Z,2.50
2019-04-01T22:41:29.928Z,2.70
2019-04-01T22:46:34.707Z,2.97
2019-04-01T22:51:38.139Z,2.37
2019-04-01T22:56:41.602Z,2.90
2019-04-01T23:01:45.042Z,3.80
2019-04-01T23:06:48.061Z,4.00
2019-04-01T23:11:50.915Z,4.47
2019-04-01T23:16:53.544Z,4.57
2019-04-01T23:21:57.097Z,2.40
2019-04-01T23:26:59.873Z,2.30
2019-04-01T23:32:03.403Z,2.70
2019-04-01T23:37:06.324Z,2.07
2019-04-01T23:42:09.192Z,2.10
2019-04-01T23:47:12.576Z,1.93
2019-04-01T23:52:15.736Z,2.10
2019-04-01T23:57:18.536Z,1.97
